createdAt,value
2022-10-25T00:00:03.759Z,956.69
2022-10-25T00:02:30.142Z,956.64
2022-10-25T00:04:56.426Z,956.69
2022-10-25T00:07:22.769Z,956.70
2022-10-25T00:09:49.094Z,956.72
2022-10-25T00:12:15.476Z,956.70
2022-10-25T00:14:41.809Z,956.73
2022-10-25T00:17:08.161Z,956.71
2022-10-25T00:19:34.500Z,956.69
2022-10-25T00:22:00.850Z,956.65
2022-10-25T00:24:27.189Z,956.68
2022-10-25T00:26:53.507Z,956.72
2022-10-25T00:29:19.893Z,956.75
2022-10-25T00:31:46.179Z,956.81
2022-10-25T00:34:12.504Z,956.76
2022-10-25T00:36:38.880Z,956.66
2022-10-25T00:39:05.186Z,956.71
2022-10-25T00:41:31.533Z,956.60
2022-10-25T00:43:57.875Z,956.60
2022-10-25T00:46:24.233Z,956.60
2022-10-25T00:48:50.569Z,956.56
2022-10-25T00:51:16.906Z,956.56
2022-10-25T00:53:43.249Z,956.60
2022-10-25T00:56:09.660Z,956.50
2022-10-25T00:58:36.006Z,956.47
2022-10-25T01:01:02.400Z,956.47
2022-10-25T01:03:28.708Z,956.41
2022-10-25T01:05:55.066Z,956.38
2022-10-25T01:08:21.389Z,956.47
2022-10-25T01:10:47.735Z,956.41
2022-10-25T01:13:14.058Z,956.38
2022-10-25T01:15:40.404Z,956.40
2022-10-25T01:18:06.773Z,956.39
2022-10-25T01:20:33.116Z,956.46
2022-10-25T01:22:59.433Z,956.47
2022-10-25T01:25:25.787Z,956.44
2022-10-25T01:27:52.149Z,956.45
2022-10-25T01:30:18.463Z,956.45
2022-10-25T01:32:45.081Z,956.41
2022-10-25T01:35:11.168Z,956.43
2022-10-25T01:37:37.517Z,956.38
2022-10-25T01:40:03.848Z,956.33
2022-10-25T01:42:30.195Z,956.30
2022-10-25T01:44:56.545Z,956.31
2022-10-25T01:47:22.900Z,956.28
2022-10-25T01:49:49.222Z,956.32
2022-10-25T01:52:15.542Z,956.34
2022-10-25T01:54:41.923Z,956.32
2022-10-25T01:57:08.238Z,956.25
2022-10-25T01:59:34.582Z,956.25
2022-10-25T02:02:00.899Z,956.30
2022-10-25T02:04:27.252Z,956.30
2022-10-25T02:06:53.568Z,956.30
2022-10-25T02:09:19.955Z,956.25
2022-10-25T02:11:46.291Z,956.19
2022-10-25T02:14:12.614Z,956.27
2022-10-25T02:16:38.974Z,956.18
2022-10-25T02:19:05.333Z,956.27
2022-10-25T02:21:31.650Z,956.24
2022-10-25T02:23:58.036Z,956.21
2022-10-25T02:26:24.353Z,956.15
2022-10-25T02:28:50.683Z,956.23
2022-10-25T02:31:17.025Z,956.18
2022-10-25T02:33:43.373Z,956.21
2022-10-25T02:36:09.690Z,956.29
2022-10-25T02:38:36.020Z,956.22
2022-10-25T02:41:02.377Z,956.20
2022-10-25T02:45:55.047Z,956.21
2022-10-25T02:48:21.372Z,956.19
2022-10-25T02:50:47.714Z,956.23
2022-10-25T02:53:14.030Z,956.28
2022-10-25T02:55:40.349Z,956.30
2022-10-25T02:58:06.731Z,956.18
2022-10-25T03:00:33.143Z,956.17
2022-10-25T03:02:59.430Z,956.14
2022-10-25T03:05:25.754Z,956.12
2022-10-25T03:07:52.107Z,956.11
2022-10-25T03:10:18.428Z,956.14
2022-10-25T03:12:45.053Z,956.04
2022-10-25T03:15:11.133Z,956.13
2022-10-25T03:17:37.474Z,956.10
2022-10-25T03:20:03.805Z,956.14
2022-10-25T03:22:30.163Z,956.21
2022-10-25T03:24:56.542Z,956.18
2022-10-25T03:27:22.850Z,956.20
2022-10-25T03:29:49.208Z,956.18
2022-10-25T03:32:15.529Z,956.14
2022-10-25T03:34:41.871Z,956.16
2022-10-25T03:37:08.256Z,956.13
2022-10-25T03:39:34.566Z,956.08
2022-10-25T03:42:00.916Z,956.09
2022-10-25T03:44:27.237Z,956.11
2022-10-25T03:46:53.593Z,956.09
2022-10-25T03:49:19.943Z,956.04
2022-10-25T03:51:46.270Z,956.09
2022-10-25T03:54:12.590Z,956.01
2022-10-25T03:56:38.938Z,956.04
2022-10-25T03:59:05.254Z,956.06
2022-10-25T04:01:31.699Z,956.06
2022-10-25T04:03:57.961Z,956.08
2022-10-25T04:06:24.275Z,956.06
2022-10-25T04:08:50.590Z,956.11
2022-10-25T04:11:16.941Z,956.09
2022-10-25T04:13:43.267Z,956.04
2022-10-25T04:16:10.231Z,956.03
2022-10-25T04:18:36.582Z,955.98
2022-10-25T04:21:02.905Z,956.05
2022-10-25T04:23:29.247Z,956.11
2022-10-25T04:25:55.662Z,956.10
2022-10-25T04:28:21.982Z,956.08
2022-10-25T04:30:48.311Z,956.10
2022-10-25T04:33:14.631Z,956.17
2022-10-25T04:35:40.980Z,956.24
2022-10-25T04:38:07.299Z,956.29
2022-10-25T04:40:33.642Z,956.18
2022-10-25T04:42:59.968Z,956.10
2022-10-25T04:45:26.317Z,956.09
2022-10-25T04:47:52.629Z,956.15
2022-10-25T04:50:18.993Z,956.26
2022-10-25T04:52:45.581Z,956.22
2022-10-25T04:55:11.650Z,956.25
2022-10-25T04:57:38.007Z,956.18
2022-10-25T05:00:04.352Z,956.22
2022-10-25T05:02:30.711Z,956.27
2022-10-25T05:04:57.055Z,956.24
2022-10-25T05:07:23.376Z,956.19
2022-10-25T05:09:49.726Z,956.23
2022-10-25T05:12:16.042Z,956.16
2022-10-25T05:14:42.367Z,956.17
2022-10-25T05:17:08.698Z,956.23
2022-10-25T05:19:35.051Z,956.18
2022-10-25T05:22:01.383Z,956.23
2022-10-25T05:24:27.724Z,956.20
2022-10-25T05:26:54.048Z,956.30
2022-10-25T05:29:20.481Z,956.38
2022-10-25T05:31:46.814Z,956.34
2022-10-25T05:34:13.163Z,956.43
2022-10-25T05:36:39.506Z,956.52
2022-10-25T05:39:05.840Z,956.54
2022-10-25T05:41:34.813Z,956.64
2022-10-25T05:43:58.544Z,956.70
2022-10-25T05:46:24.877Z,956.71
2022-10-25T05:48:51.267Z,956.74
2022-10-25T05:53:43.916Z,956.79
2022-10-25T05:56:10.272Z,956.91
2022-10-25T05:58:36.593Z,956.86
2022-10-25T06:01:03.041Z,956.88
2022-10-25T06:03:29.276Z,956.94
2022-10-25T06:05:55.591Z,956.92
2022-10-25T06:08:21.943Z,956.90
2022-10-25T06:13:14.654Z,957.00
2022-10-25T06:15:40.993Z,957.00
2022-10-25T06:18:07.341Z,956.95
2022-10-25T06:20:33.750Z,956.92
2022-10-25T06:23:00.047Z,956.93
2022-10-25T06:25:26.378Z,956.94
2022-10-25T06:27:52.713Z,956.98
2022-10-25T06:30:19.140Z,956.93
2022-10-25T06:32:45.815Z,956.96
2022-10-25T06:35:11.767Z,956.91
2022-10-25T06:37:38.110Z,957.09
2022-10-25T06:40:04.464Z,957.09
2022-10-25T06:42:30.801Z,957.13
2022-10-25T06:44:57.149Z,957.17
2022-10-25T06:47:23.460Z,957.08
2022-10-25T06:49:49.809Z,957.05
2022-10-25T06:52:16.149Z,957.04
2022-10-25T06:54:42.483Z,957.09
2022-10-25T06:57:08.824Z,957.01
2022-10-25T06:59:35.140Z,957.02
2022-10-25T07:02:01.641Z,957.01
2022-10-25T07:04:27.832Z,957.00
2022-10-25T07:06:55.348Z,956.97
2022-10-25T07:09:20.535Z,956.98
2022-10-25T07:11:46.883Z,957.01
2022-10-25T07:14:13.216Z,956.93
2022-10-25T07:16:39.752Z,956.89
2022-10-25T07:19:06.068Z,956.87
2022-10-25T07:21:32.462Z,956.87
2022-10-25T07:23:58.888Z,956.89
2022-10-25T07:26:25.243Z,956.86
2022-10-25T07:28:51.557Z,956.83
2022-10-25T07:31:17.953Z,956.78
2022-10-25T07:33:44.299Z,956.79
2022-10-25T07:36:11.630Z,956.83
2022-10-25T07:38:37.008Z,956.85
2022-10-25T07:41:03.350Z,956.92
2022-10-25T07:43:29.695Z,956.86
2022-10-25T07:45:56.048Z,956.83
2022-10-25T07:48:22.366Z,956.90
2022-10-25T07:50:48.692Z,956.78
2022-10-25T07:53:15.177Z,956.65
2022-10-25T07:55:41.503Z,956.67
2022-10-25T07:58:07.819Z,956.69
2022-10-25T08:00:34.189Z,956.59
2022-10-25T08:03:00.594Z,956.61
2022-10-25T08:05:26.856Z,956.67
2022-10-25T08:07:53.230Z,956.71
2022-10-25T08:10:19.584Z,956.65
2022-10-25T08:12:45.925Z,956.70
2022-10-25T08:15:12.381Z,956.74
2022-10-25T08:17:38.718Z,956.70
2022-10-25T08:20:05.079Z,956.69
2022-10-25T08:22:31.397Z,956.63
2022-10-25T08:24:57.720Z,956.56
2022-10-25T08:27:24.056Z,956.59
2022-10-25T08:29:50.378Z,956.55
2022-10-25T08:32:16.717Z,956.58
2022-10-25T08:34:43.060Z,956.59
2022-10-25T08:37:09.382Z,956.47
2022-10-25T08:39:35.729Z,956.47
2022-10-25T08:42:02.076Z,956.47
2022-10-25T08:44:28.425Z,956.46
2022-10-25T08:46:54.758Z,956.43
2022-10-25T08:49:21.125Z,956.34
2022-10-25T08:51:47.438Z,956.35
2022-10-25T08:54:13.788Z,956.32
2022-10-25T08:56:51.234Z,956.27
2022-10-25T08:59:06.482Z,956.24
2022-10-25T09:01:32.859Z,956.24
2022-10-25T09:03:59.156Z,956.24
2022-10-25T09:06:25.497Z,956.23
2022-10-25T09:08:51.820Z,956.20
2022-10-25T09:11:18.144Z,956.28
2022-10-25T09:13:44.489Z,956.25
2022-10-25T09:16:10.827Z,956.28
2022-10-25T09:18:37.161Z,956.28
2022-10-25T09:21:03.492Z,956.30
2022-10-25T09:23:29.817Z,956.30
2022-10-25T09:25:56.185Z,956.30
2022-10-25T09:28:22.535Z,956.19
2022-10-25T09:30:48.884Z,956.24
2022-10-25T09:35:41.593Z,956.09
2022-10-25T09:38:07.922Z,956.10
2022-10-25T09:40:34.268Z,956.03
2022-10-25T09:43:00.622Z,956.02
2022-10-25T09:45:26.959Z,955.90
2022-10-25T09:47:53.272Z,955.90
2022-10-25T09:50:19.621Z,955.84
2022-10-25T09:52:45.957Z,955.82
2022-10-25T09:55:12.312Z,955.82
2022-10-25T09:57:38.626Z,955.79
2022-10-25T10:00:04.978Z,955.75
2022-10-25T10:02:31.447Z,955.73
2022-10-25T10:04:57.704Z,955.66
2022-10-25T10:07:24.040Z,955.68
2022-10-25T10:09:50.389Z,955.63
2022-10-25T10:12:16.709Z,955.58
2022-10-25T10:14:43.039Z,955.56
2022-10-25T10:17:09.395Z,955.59
2022-10-25T10:19:35.722Z,955.52
2022-10-25T10:22:02.083Z,955.51
2022-10-25T10:24:28.373Z,955.42
2022-10-25T10:26:54.749Z,955.45
2022-10-25T10:29:21.158Z,955.34
2022-10-25T10:31:47.453Z,955.32
2022-10-25T10:34:13.845Z,955.32
2022-10-25T10:36:40.169Z,955.24
2022-10-25T10:39:06.498Z,955.18
2022-10-25T10:41:32.855Z,955.12
2022-10-25T10:43:59.179Z,955.05
2022-10-25T10:46:25.498Z,955.05
2022-10-25T10:48:51.869Z,955.00
2022-10-25T10:51:42.961Z,954.99
2022-10-25T10:53:44.503Z,954.99
2022-10-25T10:56:10.823Z,954.96
2022-10-25T10:58:37.156Z,954.94
2022-10-25T11:01:03.597Z,954.96
2022-10-25T11:03:29.831Z,954.92
2022-10-25T11:05:56.170Z,954.84
2022-10-25T11:08:22.486Z,954.82
2022-10-25T11:10:48.813Z,954.71
2022-10-25T11:13:15.162Z,954.76
2022-10-25T11:15:41.534Z,954.72
2022-10-25T11:18:07.850Z,954.68
2022-10-25T11:20:34.202Z,954.71
2022-10-25T11:23:04.233Z,954.60
2022-10-25T11:25:26.897Z,954.60
2022-10-25T11:27:53.231Z,954.57
2022-10-25T11:30:19.595Z,954.46
2022-10-25T11:32:47.673Z,954.49
2022-10-25T11:35:12.259Z,954.47
2022-10-25T11:37:38.598Z,954.39
2022-10-25T11:40:04.940Z,954.32
2022-10-25T11:42:31.266Z,954.31
2022-10-25T11:44:57.583Z,954.32
2022-10-25T11:47:23.947Z,954.28
2022-10-25T11:49:54.691Z,954.23
2022-10-25T11:52:16.648Z,954.18
2022-10-25T11:54:43.005Z,954.14
2022-10-25T11:57:09.320Z,954.13
2022-10-25T11:59:35.658Z,954.10
2022-10-25T12:02:02.009Z,954.12
2022-10-25T12:04:29.549Z,954.09
2022-10-25T12:06:54.683Z,953.99
2022-10-25T12:09:21.008Z,954.00
2022-10-25T12:11:47.331Z,954.01
2022-10-25T12:14:13.684Z,954.02
2022-10-25T12:16:40.022Z,953.92
2022-10-25T12:19:06.397Z,953.99
2022-10-25T12:21:32.720Z,953.96
2022-10-25T12:23:59.062Z,953.94
2022-10-25T12:26:25.392Z,953.88
2022-10-25T12:28:51.712Z,953.90
2022-10-25T12:31:18.041Z,953.88
2022-10-25T12:33:44.370Z,953.88
2022-10-25T12:36:10.713Z,953.84
2022-10-25T12:38:37.028Z,953.89
2022-10-25T12:41:03.354Z,953.92
2022-10-25T12:43:29.686Z,953.87
2022-10-25T12:45:58.401Z,953.86
2022-10-25T12:48:22.354Z,953.91
2022-10-25T12:50:48.679Z,953.94
2022-10-25T12:53:14.999Z,953.92
2022-10-25T12:55:41.372Z,953.88
2022-10-25T12:58:07.737Z,953.92
2022-10-25T13:00:34.084Z,953.94
2022-10-25T13:03:00.452Z,954.01
2022-10-25T13:05:26.789Z,953.93
2022-10-25T13:07:53.106Z,953.93
2022-10-25T13:10:19.483Z,953.95
2022-10-25T13:12:46.253Z,953.88
2022-10-25T13:15:12.152Z,953.87
2022-10-25T13:17:38.527Z,953.89
2022-10-25T13:20:04.943Z,953.88
2022-10-25T13:22:34.270Z,953.82
2022-10-25T13:24:57.574Z,953.80
2022-10-25T13:27:23.908Z,953.80
2022-10-25T13:29:50.229Z,953.81
2022-10-25T13:32:16.607Z,953.82
2022-10-25T13:34:42.916Z,953.80
2022-10-25T13:37:09.261Z,953.86
2022-10-25T13:39:35.626Z,953.78
2022-10-25T13:42:01.941Z,953.82
2022-10-25T13:44:28.300Z,953.79
2022-10-25T13:46:54.641Z,953.78
2022-10-25T13:49:20.985Z,953.78
2022-10-25T13:51:47.328Z,953.78
2022-10-25T13:54:13.668Z,953.76
2022-10-25T13:56:39.991Z,953.77
2022-10-25T13:59:06.337Z,953.78
2022-10-25T14:01:32.742Z,953.76
2022-10-25T14:03:59.025Z,953.78
2022-10-25T14:06:25.400Z,953.76
2022-10-25T14:08:51.714Z,953.75
2022-10-25T14:11:18.054Z,953.77
2022-10-25T14:13:44.407Z,953.76
2022-10-25T14:16:10.750Z,953.77
2022-10-25T14:18:37.074Z,953.73
2022-10-25T14:21:03.396Z,953.71
2022-10-25T14:23:29.732Z,953.69
2022-10-25T14:25:56.081Z,953.72
2022-10-25T14:28:22.454Z,953.66
2022-10-25T14:30:48.795Z,953.68
2022-10-25T14:33:15.121Z,953.65
2022-10-25T14:35:41.503Z,953.65
2022-10-25T14:38:07.846Z,953.63
2022-10-25T14:40:34.192Z,953.66
2022-10-25T14:43:00.539Z,953.63
2022-10-25T14:45:26.855Z,953.65
2022-10-25T14:47:53.206Z,953.64
2022-10-25T14:50:19.529Z,953.65
2022-10-25T14:52:46.105Z,953.60
2022-10-25T14:55:12.183Z,953.61
2022-10-25T14:57:38.510Z,953.59
2022-10-25T15:00:04.851Z,953.58
2022-10-25T15:02:31.173Z,953.57
2022-10-25T15:04:57.497Z,953.57
2022-10-25T15:07:23.826Z,953.55
2022-10-25T15:09:50.188Z,953.49
2022-10-25T15:12:16.517Z,953.51
2022-10-25T15:14:42.883Z,953.54
2022-10-25T15:17:09.195Z,953.52
2022-10-25T15:19:35.550Z,953.52
2022-10-25T15:22:02.085Z,953.54
2022-10-25T15:24:28.362Z,953.53
2022-10-25T15:26:54.708Z,953.44
2022-10-25T15:29:21.027Z,953.56
2022-10-25T15:31:47.383Z,953.54
2022-10-25T15:34:13.722Z,953.54
2022-10-25T15:36:40.079Z,953.59
2022-10-25T15:39:10.496Z,953.59
2022-10-25T15:41:32.738Z,953.65
2022-10-25T15:43:59.055Z,953.70
2022-10-25T15:46:25.384Z,953.81
2022-10-25T15:48:51.728Z,953.81
2022-10-25T15:51:18.088Z,953.87
2022-10-25T15:53:44.439Z,953.86
2022-10-25T15:56:10.777Z,953.94
2022-10-25T15:58:37.120Z,953.92
2022-10-25T16:01:03.532Z,953.89
2022-10-25T16:03:29.826Z,953.85
2022-10-25T16:05:56.145Z,953.82
2022-10-25T16:08:22.534Z,953.85
2022-10-25T16:10:48.851Z,953.87
2022-10-25T16:13:15.194Z,953.84
2022-10-25T16:15:41.547Z,953.88
2022-10-25T16:18:07.898Z,953.89
2022-10-25T16:20:34.229Z,953.89
2022-10-25T16:23:00.574Z,953.97
2022-10-25T16:25:30.527Z,953.99
2022-10-25T16:27:53.235Z,954.01
2022-10-25T16:30:19.595Z,954.08
2022-10-25T16:32:46.171Z,954.07
2022-10-25T16:35:12.312Z,954.08
2022-10-25T16:37:38.630Z,954.11
2022-10-25T16:40:04.979Z,954.19
2022-10-25T16:42:31.303Z,954.22
2022-10-25T16:44:57.664Z,954.20
2022-10-25T16:47:24.011Z,954.17
2022-10-25T16:49:50.354Z,954.20
2022-10-25T16:52:16.725Z,954.25
2022-10-25T16:54:43.065Z,954.29
2022-10-25T16:57:09.379Z,954.36
2022-10-25T16:59:35.715Z,954.32
2022-10-25T17:02:02.110Z,954.33
2022-10-25T17:04:28.361Z,954.28
2022-10-25T17:06:54.701Z,954.30
2022-10-25T17:09:21.047Z,954.37
2022-10-25T17:11:47.437Z,954.32
2022-10-25T17:14:13.783Z,954.34
2022-10-25T17:16:40.110Z,954.36
2022-10-25T17:19:06.471Z,954.36
2022-10-25T17:21:32.810Z,954.39
2022-10-25T17:23:59.214Z,954.34
2022-10-25T17:26:25.538Z,954.39
2022-10-25T17:28:51.933Z,954.38
2022-10-25T17:31:18.274Z,954.42
2022-10-25T17:33:44.618Z,954.35
2022-10-25T17:36:10.955Z,954.36
2022-10-25T17:38:37.330Z,954.33
2022-10-25T17:41:03.685Z,954.36
2022-10-25T17:43:30.035Z,954.31
2022-10-25T17:45:56.357Z,954.31
2022-10-25T17:48:22.686Z,954.32
2022-10-25T17:50:49.025Z,954.28
2022-10-25T17:53:15.383Z,954.36
2022-10-25T17:55:41.735Z,954.40
2022-10-25T17:58:08.053Z,954.40
2022-10-25T18:00:34.428Z,954.45
2022-10-25T18:03:00.782Z,954.45
2022-10-25T18:05:27.117Z,954.48
2022-10-25T18:07:53.496Z,954.51
2022-10-25T18:10:19.817Z,954.63
2022-10-25T18:12:46.563Z,954.61
2022-10-25T18:15:12.489Z,954.69
2022-10-25T18:17:38.838Z,954.73
2022-10-25T18:20:05.152Z,954.72
2022-10-25T18:22:31.479Z,954.73
2022-10-25T18:24:57.822Z,954.77
2022-10-25T18:27:24.167Z,954.73
2022-10-25T18:29:50.614Z,954.88
2022-10-25T18:32:16.937Z,954.85
2022-10-25T18:34:43.257Z,954.87
2022-10-25T18:37:09.602Z,954.87
2022-10-25T18:39:35.918Z,954.76
2022-10-25T18:42:02.262Z,954.81
2022-10-25T18:44:28.605Z,954.77
2022-10-25T18:46:54.965Z,954.76
2022-10-25T18:49:21.279Z,954.74
2022-10-25T18:51:47.615Z,954.81
2022-10-25T18:54:13.983Z,954.83
2022-10-25T18:56:40.332Z,954.83
2022-10-25T18:59:06.680Z,954.91
2022-10-25T19:01:33.310Z,954.91
2022-10-25T19:03:59.367Z,954.87
2022-10-25T19:06:25.749Z,954.95
2022-10-25T19:08:52.064Z,954.84
2022-10-25T19:11:18.389Z,954.94
2022-10-25T19:13:47.599Z,954.96
2022-10-25T19:16:11.116Z,955.02
2022-10-25T19:18:37.484Z,955.01
2022-10-25T19:21:03.784Z,955.08
2022-10-25T19:23:30.103Z,955.07
2022-10-25T19:25:56.482Z,955.06
2022-10-25T19:28:22.819Z,955.05
2022-10-25T19:30:49.148Z,955.03
2022-10-25T19:33:15.525Z,955.01
2022-10-25T19:35:41.845Z,955.10
2022-10-25T19:38:08.187Z,955.17
2022-10-25T19:40:34.527Z,955.24
2022-10-25T19:43:00.856Z,955.26
2022-10-25T19:45:27.194Z,955.28
2022-10-25T19:47:53.599Z,955.30
2022-10-25T19:50:19.992Z,955.35
2022-10-25T19:52:46.374Z,955.39
2022-10-25T19:55:12.703Z,955.34
2022-10-25T19:57:39.032Z,955.48
2022-10-25T20:00:08.615Z,955.52
2022-10-25T20:02:31.776Z,955.54
2022-10-25T20:04:58.088Z,955.55
2022-10-25T20:07:24.454Z,955.51
2022-10-25T20:09:50.781Z,955.54
2022-10-25T20:12:17.170Z,955.51
2022-10-25T20:14:43.503Z,955.54
2022-10-25T20:17:09.850Z,955.60
2022-10-25T20:19:36.194Z,955.63
2022-10-25T20:22:02.518Z,955.70
2022-10-25T20:24:28.847Z,955.61
2022-10-25T20:26:55.195Z,955.60
2022-10-25T20:29:21.717Z,955.61
2022-10-25T20:31:47.892Z,955.65
2022-10-25T20:34:14.234Z,955.63
2022-10-25T20:36:40.575Z,955.74
2022-10-25T20:39:06.908Z,955.77
2022-10-25T20:41:33.271Z,955.83
2022-10-25T20:43:59.623Z,955.79
2022-10-25T20:46:26.069Z,955.75
2022-10-25T20:48:52.338Z,955.86
2022-10-25T20:51:18.680Z,955.85
2022-10-25T20:53:45.019Z,955.87
2022-10-25T20:56:11.345Z,955.91
2022-10-25T20:58:37.710Z,955.85
2022-10-25T21:01:04.152Z,955.83
2022-10-25T21:03:30.381Z,955.80
2022-10-25T21:05:56.731Z,955.84
2022-10-25T21:08:23.071Z,955.81
2022-10-25T21:10:49.419Z,955.83
2022-10-25T21:13:15.756Z,955.83
2022-10-25T21:15:42.138Z,955.84
2022-10-25T21:18:08.460Z,955.89
2022-10-25T21:20:34.788Z,955.85
2022-10-25T21:23:01.147Z,955.84
2022-10-25T21:25:27.491Z,955.90
2022-10-25T21:27:53.830Z,955.99
2022-10-25T21:30:20.175Z,955.91
2022-10-25T21:32:46.520Z,955.96
2022-10-25T21:35:12.863Z,955.94
2022-10-25T21:37:39.174Z,955.98
2022-10-25T21:40:05.634Z,956.01
2022-10-25T21:42:31.970Z,955.94
2022-10-25T21:44:58.292Z,956.02
2022-10-25T21:47:24.614Z,956.02
2022-10-25T21:49:50.960Z,956.00
2022-10-25T21:52:17.275Z,955.97
2022-10-25T21:54:43.624Z,955.97
2022-10-25T21:57:09.943Z,955.94
2022-10-25T21:59:36.291Z,955.91
2022-10-25T22:02:02.826Z,955.97
2022-10-25T22:04:29.024Z,955.92
2022-10-25T22:06:55.865Z,956.00
2022-10-25T22:09:22.191Z,956.02
2022-10-25T22:11:48.545Z,956.03
2022-10-25T22:14:14.890Z,955.98
2022-10-25T22:16:41.232Z,956.01
2022-10-25T22:19:07.562Z,956.03
2022-10-25T22:21:33.876Z,956.04
2022-10-25T22:24:00.242Z,955.99
2022-10-25T22:26:26.586Z,956.01
2022-10-25T22:28:52.924Z,956.00
2022-10-25T22:31:19.268Z,956.02
2022-10-25T22:33:45.609Z,956.02
2022-10-25T22:36:11.938Z,956.00
2022-10-25T22:38:38.274Z,956.09
2022-10-25T22:41:04.614Z,956.08
2022-10-25T22:43:30.944Z,956.12
2022-10-25T22:45:57.307Z,956.12
2022-10-25T22:48:23.647Z,956.13
2022-10-25T22:50:49.984Z,956.11
2022-10-25T22:53:16.329Z,956.15
2022-10-25T22:55:42.647Z,956.13
2022-10-25T22:58:08.975Z,956.11
2022-10-25T23:00:35.355Z,956.13
2022-10-25T23:03:01.761Z,956.16
2022-10-25T23:05:28.032Z,956.14
2022-10-25T23:07:54.403Z,956.15
2022-10-25T23:10:20.743Z,956.15
2022-10-25T23:12:47.327Z,956.18
2022-10-25T23:15:13.444Z,956.20
2022-10-25T23:17:39.806Z,956.19
2022-10-25T23:20:06.105Z,956.21
2022-10-25T23:22:32.465Z,956.25
2022-10-25T23:24:58.820Z,956.21
2022-10-25T23:27:25.185Z,956.33
2022-10-25T23:29:51.520Z,956.30
2022-10-25T23:32:17.839Z,956.29
2022-10-25T23:34:44.176Z,956.35
2022-10-25T23:37:10.523Z,956.39
2022-10-25T23:39:36.908Z,956.42
2022-10-25T23:42:03.299Z,956.40
2022-10-25T23:44:29.876Z,956.48
2022-10-25T23:46:56.152Z,956.43
2022-10-25T23:49:22.489Z,956.55
2022-10-25T23:51:48.813Z,956.51
2022-10-25T23:54:15.158Z,956.58
2022-10-25T23:56:41.478Z,956.54
2022-10-25T23:59:07.852Z,956.53
